sensor_id;sensor_type;location;lat;lon;timestamp;P1;durP1;ratioP1;P2;durP2;ratioP2
23506;SDS011;11930;53.076;18.250;2024-03-17T00:02:09;10.43;;;2.67;;
23506;SDS011;11930;53.076;18.250;2024-03-17T00:04:35;9.17;;;2.27;;
23506;SDS011;11930;53.076;18.250;2024-03-17T00:07:01;10.07;;;2.70;;
23506;SDS011;11930;53.076;18.250;2024-03-17T00:09:27;9.00;;;2.40;;
23506;SDS011;11930;53.076;18.250;2024-03-17T00:11:54;8.73;;;2.30;;
23506;SDS011;11930;53.076;18.250;2024-03-17T00:14:21;13.30;;;2.90;;
23506;SDS011;11930;53.076;18.250;2024-03-17T00:16:48;10.63;;;2.27;;
23506;SDS011;11930;53.076;18.250;2024-03-17T00:19:14;10.63;;;2.97;;
23506;SDS011;11930;53.076;18.250;2024-03-17T00:21:42;11.23;;;2.53;;
23506;SDS011;11930;53.076;18.250;2024-03-17T00:24:09;13.97;;;2.37;;
23506;SDS011;11930;53.076;18.250;2024-03-17T00:26:36;10.40;;;2.43;;
23506;SDS011;11930;53.076;18.250;2024-03-17T00:29:02;10.37;;;2.87;;
23506;SDS011;11930;53.076;18.250;2024-03-17T00:31:28;9.50;;;2.37;;
23506;SDS011;11930;53.076;18.250;2024-03-17T00:33:57;10.67;;;2.10;;
23506;SDS011;11930;53.076;18.250;2024-03-17T00:36:23;9.00;;;2.43;;
23506;SDS011;11930;53.076;18.250;2024-03-17T00:38:49;9.60;;;2.70;;
23506;SDS011;11930;53.076;18.250;2024-03-17T00:41:17;11.33;;;2.57;;
23506;SDS011;11930;53.076;18.250;2024-03-17T00:43:45;12.53;;;3.07;;
23506;SDS011;11930;53.076;18.250;2024-03-17T00:46:11;9.80;;;2.60;;
23506;SDS011;11930;53.076;18.250;2024-03-17T00:48:37;12.57;;;3.10;;
23506;SDS011;11930;53.076;18.250;2024-03-17T00:51:04;8.83;;;1.90;;
23506;SDS011;11930;53.076;18.250;2024-03-17T00:53:31;10.97;;;2.57;;
23506;SDS011;11930;53.076;18.250;2024-03-17T00:55:57;8.80;;;1.97;;
23506;SDS011;11930;53.076;18.250;2024-03-17T00:58:27;7.37;;;1.90;;
23506;SDS011;11930;53.076;18.250;2024-03-17T01:00:54;8.67;;;1.93;;
23506;SDS011;11930;53.076;18.250;2024-03-17T01:03:20;10.20;;;2.20;;
23506;SDS011;11930;53.076;18.250;2024-03-17T01:05:47;7.23;;;2.20;;
23506;SDS011;11930;53.076;18.250;2024-03-17T01:08:16;9.03;;;2.00;;
23506;SDS011;11930;53.076;18.250;2024-03-17T01:10:43;7.40;;;2.10;;
23506;SDS011;11930;53.076;18.250;2024-03-17T01:13:11;9.73;;;2.30;;
23506;SDS011;11930;53.076;18.250;2024-03-17T01:15:37;6.27;;;2.17;;
23506;SDS011;11930;53.076;18.250;2024-03-17T01:18:05;11.33;;;2.10;;
23506;SDS011;11930;53.076;18.250;2024-03-17T01:20:32;7.10;;;1.90;;
23506;SDS011;11930;53.076;18.250;2024-03-17T01:23:00;9.37;;;1.83;;
23506;SDS011;11930;53.076;18.250;2024-03-17T01:25:27;7.40;;;1.93;;
23506;SDS011;11930;53.076;18.250;2024-03-17T01:27:55;10.03;;;2.20;;
23506;SDS011;11930;53.076;18.250;2024-03-17T01:30:21;11.70;;;1.90;;
23506;SDS011;11930;53.076;18.250;2024-03-17T01:32:48;9.97;;;1.50;;
23506;SDS011;11930;53.076;18.250;2024-03-17T01:35:15;6.50;;;1.50;;
23506;SDS011;11930;53.076;18.250;2024-03-17T01:37:42;5.37;;;1.40;;
23506;SDS011;11930;53.076;18.250;2024-03-17T01:40:08;9.33;;;1.67;;
23506;SDS011;11930;53.076;18.250;2024-03-17T01:42:36;8.57;;;1.67;;
23506;SDS011;11930;53.076;18.250;2024-03-17T01:48:01;6.47;;;1.53;;
23506;SDS011;11930;53.076;18.250;2024-03-17T01:50:31;8.50;;;1.50;;
23506;SDS011;11930;53.076;18.250;2024-03-17T01:53:01;7.77;;;2.00;;
23506;SDS011;11930;53.076;18.250;2024-03-17T01:55:32;6.70;;;1.70;;
23506;SDS011;11930;53.076;18.250;2024-03-17T01:58:01;8.17;;;1.60;;
23506;SDS011;11930;53.076;18.250;2024-03-17T02:00:28;4.70;;;1.40;;
23506;SDS011;11930;53.076;18.250;2024-03-17T02:02:57;8.07;;;1.60;;
23506;SDS011;11930;53.076;18.250;2024-03-17T02:05:23;8.30;;;2.00;;
23506;SDS011;11930;53.076;18.250;2024-03-17T02:07:49;5.20;;;1.93;;
23506;SDS011;11930;53.076;18.250;2024-03-17T02:10:16;11.70;;;1.93;;
23506;SDS011;11930;53.076;18.250;2024-03-17T02:12:42;5.67;;;2.00;;
23506;SDS011;11930;53.076;18.250;2024-03-17T02:15:08;7.40;;;1.87;;
23506;SDS011;11930;53.076;18.250;2024-03-17T02:17:34;11.83;;;2.50;;
23506;SDS011;11930;53.076;18.250;2024-03-17T02:20:01;7.13;;;2.30;;
23506;SDS011;11930;53.076;18.250;2024-03-17T02:22:28;7.03;;;2.00;;
23506;SDS011;11930;53.076;18.250;2024-03-17T02:24:54;10.50;;;2.20;;
23506;SDS011;11930;53.076;18.250;2024-03-17T02:27:20;6.60;;;1.80;;
23506;SDS011;11930;53.076;18.250;2024-03-17T02:29:46;7.63;;;1.80;;
23506;SDS011;11930;53.076;18.250;2024-03-17T02:32:13;8.00;;;2.77;;
23506;SDS011;11930;53.076;18.250;2024-03-17T02:34:39;8.23;;;1.90;;
23506;SDS011;11930;53.076;18.250;2024-03-17T02:37:06;7.27;;;1.70;;
23506;SDS011;11930;53.076;18.250;2024-03-17T02:39:33;8.67;;;1.77;;
23506;SDS011;11930;53.076;18.250;2024-03-17T02:42:00;9.23;;;2.33;;
23506;SDS011;11930;53.076;18.250;2024-03-17T02:44:31;7.17;;;1.80;;
23506;SDS011;11930;53.076;18.250;2024-03-17T02:46:58;9.07;;;2.17;;
23506;SDS011;11930;53.076;18.250;2024-03-17T02:49:25;7.37;;;1.97;;
23506;SDS011;11930;53.076;18.250;2024-03-17T02:51:53;7.83;;;2.20;;
23506;SDS011;11930;53.076;18.250;2024-03-17T02:54:20;9.77;;;2.63;;
23506;SDS011;11930;53.076;18.250;2024-03-17T02:56:48;6.70;;;1.90;;
23506;SDS011;11930;53.076;18.250;2024-03-17T02:59:14;8.77;;;1.90;;
23506;SDS011;11930;53.076;18.250;2024-03-17T03:01:41;9.63;;;2.13;;
23506;SDS011;11930;53.076;18.250;2024-03-17T03:04:07;9.10;;;1.90;;
23506;SDS011;11930;53.076;18.250;2024-03-17T03:06:33;5.17;;;1.63;;
23506;SDS011;11930;53.076;18.250;2024-03-17T03:08:59;11.13;;;2.23;;
23506;SDS011;11930;53.076;18.250;2024-03-17T03:11:26;7.47;;;2.17;;
23506;SDS011;11930;53.076;18.250;2024-03-17T03:13:52;8.50;;;1.63;;
23506;SDS011;11930;53.076;18.250;2024-03-17T03:16:18;7.77;;;1.80;;
23506;SDS011;11930;53.076;18.250;2024-03-17T03:18:44;6.87;;;1.90;;
23506;SDS011;11930;53.076;18.250;2024-03-17T03:21:11;6.70;;;1.90;;
23506;SDS011;11930;53.076;18.250;2024-03-17T03:23:40;6.50;;;1.80;;
23506;SDS011;11930;53.076;18.250;2024-03-17T03:26:07;6.97;;;1.63;;
23506;SDS011;11930;53.076;18.250;2024-03-17T03:28:34;7.60;;;2.00;;
23506;SDS011;11930;53.076;18.250;2024-03-17T03:31:01;6.90;;;2.40;;
23506;SDS011;11930;53.076;18.250;2024-03-17T03:33:28;10.43;;;2.20;;
23506;SDS011;11930;53.076;18.250;2024-03-17T03:35:54;13.40;;;2.70;;
23506;SDS011;11930;53.076;18.250;2024-03-17T03:38:20;11.60;;;2.43;;
23506;SDS011;11930;53.076;18.250;2024-03-17T03:40:47;8.83;;;2.13;;
23506;SDS011;11930;53.076;18.250;2024-03-17T03:43:14;5.80;;;1.97;;
23506;SDS011;11930;53.076;18.250;2024-03-17T03:45:40;8.97;;;2.03;;
23506;SDS011;11930;53.076;18.250;2024-03-17T03:48:07;9.27;;;1.97;;
23506;SDS011;11930;53.076;18.250;2024-03-17T03:50:34;5.97;;;1.50;;
23506;SDS011;11930;53.076;18.250;2024-03-17T03:53:01;9.77;;;2.03;;
23506;SDS011;11930;53.076;18.250;2024-03-17T03:55:27;6.87;;;1.60;;
23506;SDS011;11930;53.076;18.250;2024-03-17T03:57:54;11.77;;;1.80;;
23506;SDS011;11930;53.076;18.250;2024-03-17T04:00:21;5.90;;;1.80;;
23506;SDS011;11930;53.076;18.250;2024-03-17T04:02:48;7.40;;;1.93;;
23506;SDS011;11930;53.076;18.250;2024-03-17T04:05:16;8.80;;;1.73;;
23506;SDS011;11930;53.076;18.250;2024-03-17T04:07:43;10.50;;;2.10;;
23506;SDS011;11930;53.076;18.250;2024-03-17T04:10:12;7.13;;;1.53;;
23506;SDS011;11930;53.076;18.250;2024-03-17T04:12:39;10.57;;;2.23;;
23506;SDS011;11930;53.076;18.250;2024-03-17T04:15:05;6.30;;;1.70;;
23506;SDS011;11930;53.076;18.250;2024-03-17T04:17:32;9.00;;;1.87;;
23506;SDS011;11930;53.076;18.250;2024-03-17T04:19:59;15.47;;;2.63;;
23506;SDS011;11930;53.076;18.250;2024-03-17T04:22:25;10.20;;;2.30;;
23506;SDS011;11930;53.076;18.250;2024-03-17T04:24:52;6.97;;;2.00;;
23506;SDS011;11930;53.076;18.250;2024-03-17T04:27:19;8.37;;;2.10;;
23506;SDS011;11930;53.076;18.250;2024-03-17T04:29:46;8.37;;;1.87;;
23506;SDS011;11930;53.076;18.250;2024-03-17T04:32:15;6.77;;;1.93;;
23506;SDS011;11930;53.076;18.250;2024-03-17T04:34:42;5.77;;;1.50;;
23506;SDS011;11930;53.076;18.250;2024-03-17T04:37:11;6.47;;;1.60;;
23506;SDS011;11930;53.076;18.250;2024-03-17T04:39:41;12.47;;;2.03;;
23506;SDS011;11930;53.076;18.250;2024-03-17T04:42:09;7.07;;;1.83;;
23506;SDS011;11930;53.076;18.250;2024-03-17T04:44:36;10.27;;;1.60;;
23506;SDS011;11930;53.076;18.250;2024-03-17T04:47:02;7.00;;;1.60;;
23506;SDS011;11930;53.076;18.250;2024-03-17T04:49:42;6.47;;;1.90;;
23506;SDS011;11930;53.076;18.250;2024-03-17T04:52:09;5.47;;;1.40;;
23506;SDS011;11930;53.076;18.250;2024-03-17T04:54:36;7.90;;;1.70;;
23506;SDS011;11930;53.076;18.250;2024-03-17T04:57:02;5.73;;;1.70;;
23506;SDS011;11930;53.076;18.250;2024-03-17T04:59:29;5.67;;;1.47;;
23506;SDS011;11930;53.076;18.250;2024-03-17T05:01:59;6.23;;;1.30;;
23506;SDS011;11930;53.076;18.250;2024-03-17T05:04:25;5.27;;;1.80;;
23506;SDS011;11930;53.076;18.250;2024-03-17T05:06:51;9.07;;;1.90;;
23506;SDS011;11930;53.076;18.250;2024-03-17T05:09:17;4.93;;;1.73;;
23506;SDS011;11930;53.076;18.250;2024-03-17T05:11:44;6.73;;;1.77;;
23506;SDS011;11930;53.076;18.250;2024-03-17T05:14:11;8.63;;;1.63;;
23506;SDS011;11930;53.076;18.250;2024-03-17T05:16:37;7.23;;;1.50;;
23506;SDS011;11930;53.076;18.250;2024-03-17T05:19:04;5.87;;;1.50;;
23506;SDS011;11930;53.076;18.250;2024-03-17T05:21:30;6.97;;;1.80;;
23506;SDS011;11930;53.076;18.250;2024-03-17T05:23:57;8.17;;;1.70;;
23506;SDS011;11930;53.076;18.250;2024-03-17T05:26:24;7.70;;;2.20;;
23506;SDS011;11930;53.076;18.250;2024-03-17T05:28:50;6.00;;;1.53;;
23506;SDS011;11930;53.076;18.250;2024-03-17T05:31:16;5.73;;;1.70;;
23506;SDS011;11930;53.076;18.250;2024-03-17T05:33:44;4.57;;;1.53;;
23506;SDS011;11930;53.076;18.250;2024-03-17T05:36:10;6.03;;;2.07;;
23506;SDS011;11930;53.076;18.250;2024-03-17T05:38:36;6.63;;;1.37;;
23506;SDS011;11930;53.076;18.250;2024-03-17T05:41:03;5.27;;;1.10;;
23506;SDS011;11930;53.076;18.250;2024-03-17T05:43:34;4.80;;;1.30;;
23506;SDS011;11930;53.076;18.250;2024-03-17T05:46:01;4.00;;;1.40;;
23506;SDS011;11930;53.076;18.250;2024-03-17T05:48:35;3.57;;;1.00;;
23506;SDS011;11930;53.076;18.250;2024-03-17T05:51:03;3.60;;;1.13;;
23506;SDS011;11930;53.076;18.250;2024-03-17T05:53:30;4.50;;;1.17;;
23506;SDS011;11930;53.076;18.250;2024-03-17T05:56:00;3.17;;;1.00;;
23506;SDS011;11930;53.076;18.250;2024-03-17T05:58:27;5.53;;;1.20;;
23506;SDS011;11930;53.076;18.250;2024-03-17T06:00:53;3.67;;;1.10;;
23506;SDS011;11930;53.076;18.250;2024-03-17T06:03:19;4.13;;;0.90;;
23506;SDS011;11930;53.076;18.250;2024-03-17T06:05:47;4.10;;;0.80;;
23506;SDS011;11930;53.076;18.250;2024-03-17T06:08:14;2.47;;;0.80;;
23506;SDS011;11930;53.076;18.250;2024-03-17T06:10:44;2.03;;;0.90;;
23506;SDS011;11930;53.076;18.250;2024-03-17T06:13:12;1.53;;;1.10;;
23506;SDS011;11930;53.076;18.250;2024-03-17T06:15:40;3.27;;;1.20;;
23506;SDS011;11930;53.076;18.250;2024-03-17T06:18:07;3.70;;;0.90;;
23506;SDS011;11930;53.076;18.250;2024-03-17T06:20:35;3.33;;;0.80;;
23506;SDS011;11930;53.076;18.250;2024-03-17T06:23:12;1.33;;;0.70;;
23506;SDS011;11930;53.076;18.250;2024-03-17T06:25:41;2.20;;;0.90;;
23506;SDS011;11930;53.076;18.250;2024-03-17T06:28:13;2.13;;;0.73;;
23506;SDS011;11930;53.076;18.250;2024-03-17T06:30:42;2.43;;;0.80;;
23506;SDS011;11930;53.076;18.250;2024-03-17T06:33:19;2.07;;;1.07;;
23506;SDS011;11930;53.076;18.250;2024-03-17T06:35:46;3.77;;;0.80;;
23506;SDS011;11930;53.076;18.250;2024-03-17T06:38:13;2.53;;;0.80;;
23506;SDS011;11930;53.076;18.250;2024-03-17T06:40:41;0.90;;;0.60;;
23506;SDS011;11930;53.076;18.250;2024-03-17T06:43:08;2.03;;;0.80;;
23506;SDS011;11930;53.076;18.250;2024-03-17T06:45:34;2.70;;;0.90;;
23506;SDS011;11930;53.076;18.250;2024-03-17T06:48:00;2.17;;;0.97;;
23506;SDS011;11930;53.076;18.250;2024-03-17T06:50:26;2.60;;;0.90;;
23506;SDS011;11930;53.076;18.250;2024-03-17T06:52:52;2.67;;;1.00;;
23506;SDS011;11930;53.076;18.250;2024-03-17T06:55:19;1.83;;;0.60;;
23506;SDS011;11930;53.076;18.250;2024-03-17T06:57:47;1.83;;;0.73;;
23506;SDS011;11930;53.076;18.250;2024-03-17T07:00:14;2.10;;;0.70;;
23506;SDS011;11930;53.076;18.250;2024-03-17T07:02:42;1.90;;;0.90;;
23506;SDS011;11930;53.076;18.250;2024-03-17T07:05:12;1.43;;;0.70;;
23506;SDS011;11930;53.076;18.250;2024-03-17T07:07:43;2.27;;;1.00;;
23506;SDS011;11930;53.076;18.250;2024-03-17T07:10:09;2.23;;;0.80;;
23506;SDS011;11930;53.076;18.250;2024-03-17T07:12:40;1.67;;;0.80;;
23506;SDS011;11930;53.076;18.250;2024-03-17T07:15:07;1.93;;;0.77;;
23506;SDS011;11930;53.076;18.250;2024-03-17T07:17:34;1.47;;;0.87;;
23506;SDS011;11930;53.076;18.250;2024-03-17T07:20:01;3.17;;;1.00;;
23506;SDS011;11930;53.076;18.250;2024-03-17T07:22:27;3.00;;;1.20;;
23506;SDS011;11930;53.076;18.250;2024-03-17T07:24:54;2.27;;;0.90;;
23506;SDS011;11930;53.076;18.250;2024-03-17T07:27:26;3.00;;;0.90;;
23506;SDS011;11930;53.076;18.250;2024-03-17T07:29:56;3.30;;;0.80;;
23506;SDS011;11930;53.076;18.250;2024-03-17T07:32:22;2.97;;;0.90;;
23506;SDS011;11930;53.076;18.250;2024-03-17T07:34:48;2.43;;;1.10;;
23506;SDS011;11930;53.076;18.250;2024-03-17T07:37:16;2.47;;;0.80;;
23506;SDS011;11930;53.076;18.250;2024-03-17T07:39:42;1.53;;;0.70;;
23506;SDS011;11930;53.076;18.250;2024-03-17T07:42:08;1.67;;;0.80;;
23506;SDS011;11930;53.076;18.250;2024-03-17T07:44:35;2.77;;;0.87;;
23506;SDS011;11930;53.076;18.250;2024-03-17T07:47:02;2.93;;;0.70;;
23506;SDS011;11930;53.076;18.250;2024-03-17T07:49:31;2.50;;;0.90;;
23506;SDS011;11930;53.076;18.250;2024-03-17T07:51:58;1.50;;;0.90;;
23506;SDS011;11930;53.076;18.250;2024-03-17T07:54:25;1.43;;;1.03;;
23506;SDS011;11930;53.076;18.250;2024-03-17T07:56:52;2.00;;;0.83;;
23506;SDS011;11930;53.076;18.250;2024-03-17T07:59:19;1.83;;;1.00;;
23506;SDS011;11930;53.076;18.250;2024-03-17T08:01:45;1.93;;;0.73;;
23506;SDS011;11930;53.076;18.250;2024-03-17T08:04:12;2.53;;;0.97;;
23506;SDS011;11930;53.076;18.250;2024-03-17T08:06:39;3.13;;;1.27;;
23506;SDS011;11930;53.076;18.250;2024-03-17T08:09:09;4.13;;;1.10;;
23506;SDS011;11930;53.076;18.250;2024-03-17T08:11:35;3.13;;;1.17;;
23506;SDS011;11930;53.076;18.250;2024-03-17T08:14:02;2.83;;;1.30;;
23506;SDS011;11930;53.076;18.250;2024-03-17T08:16:29;3.30;;;1.30;;
23506;SDS011;11930;53.076;18.250;2024-03-17T08:18:55;2.17;;;1.10;;
23506;SDS011;11930;53.076;18.250;2024-03-17T08:21:22;2.53;;;1.00;;
23506;SDS011;11930;53.076;18.250;2024-03-17T08:23:49;2.73;;;1.40;;
23506;SDS011;11930;53.076;18.250;2024-03-17T08:26:16;2.43;;;1.10;;
23506;SDS011;11930;53.076;18.250;2024-03-17T08:28:43;2.60;;;0.90;;
23506;SDS011;11930;53.076;18.250;2024-03-17T08:31:09;2.10;;;1.00;;
23506;SDS011;11930;53.076;18.250;2024-03-17T08:33:37;2.77;;;0.83;;
23506;SDS011;11930;53.076;18.250;2024-03-17T08:38:31;1.77;;;1.03;;
23506;SDS011;11930;53.076;18.250;2024-03-17T08:41:02;1.97;;;0.57;;
23506;SDS011;11930;53.076;18.250;2024-03-17T08:43:32;1.07;;;0.53;;
23506;SDS011;11930;53.076;18.250;2024-03-17T08:46:01;1.90;;;0.70;;
23506;SDS011;11930;53.076;18.250;2024-03-17T08:48:41;1.73;;;0.90;;
23506;SDS011;11930;53.076;18.250;2024-03-17T08:51:08;3.20;;;1.30;;
23506;SDS011;11930;53.076;18.250;2024-03-17T08:53:36;2.17;;;1.00;;
23506;SDS011;11930;53.076;18.250;2024-03-17T08:56:05;1.93;;;1.30;;
23506;SDS011;11930;53.076;18.250;2024-03-17T08:58:32;1.20;;;0.90;;
23506;SDS011;11930;53.076;18.250;2024-03-17T09:00:58;0.87;;;0.50;;
23506;SDS011;11930;53.076;18.250;2024-03-17T09:03:28;2.07;;;0.80;;
23506;SDS011;11930;53.076;18.250;2024-03-17T09:05:55;1.57;;;0.80;;
23506;SDS011;11930;53.076;18.250;2024-03-17T09:08:22;4.60;;;1.83;;
23506;SDS011;11930;53.076;18.250;2024-03-17T09:10:50;4.00;;;1.70;;
23506;SDS011;11930;53.076;18.250;2024-03-17T09:13:24;5.70;;;2.43;;
23506;SDS011;11930;53.076;18.250;2024-03-17T09:18:18;3.40;;;1.60;;
23506;SDS011;11930;53.076;18.250;2024-03-17T09:20:44;2.57;;;1.13;;
23506;SDS011;11930;53.076;18.250;2024-03-17T09:23:11;2.30;;;1.10;;
23506;SDS011;11930;53.076;18.250;2024-03-17T09:25:38;2.87;;;1.30;;
23506;SDS011;11930;53.076;18.250;2024-03-17T09:28:04;2.73;;;1.20;;
23506;SDS011;11930;53.076;18.250;2024-03-17T09:30:30;1.93;;;1.00;;
23506;SDS011;11930;53.076;18.250;2024-03-17T09:32:56;2.33;;;1.13;;
23506;SDS011;11930;53.076;18.250;2024-03-17T09:35:23;3.00;;;1.20;;
23506;SDS011;11930;53.076;18.250;2024-03-17T09:37:49;1.90;;;1.00;;
23506;SDS011;11930;53.076;18.250;2024-03-17T09:40:16;2.00;;;1.07;;
23506;SDS011;11930;53.076;18.250;2024-03-17T09:42:42;2.37;;;1.30;;
23506;SDS011;11930;53.076;18.250;2024-03-17T09:45:11;2.97;;;1.40;;
23506;SDS011;11930;53.076;18.250;2024-03-17T09:47:40;1.43;;;0.90;;
23506;SDS011;11930;53.076;18.250;2024-03-17T09:50:12;2.13;;;1.00;;
23506;SDS011;11930;53.076;18.250;2024-03-17T09:52:40;2.03;;;0.70;;
23506;SDS011;11930;53.076;18.250;2024-03-17T09:55:09;1.50;;;0.53;;
23506;SDS011;11930;53.076;18.250;2024-03-17T09:57:39;1.20;;;0.70;;
23506;SDS011;11930;53.076;18.250;2024-03-17T10:00:09;0.90;;;0.60;;
23506;SDS011;11930;53.076;18.250;2024-03-17T10:02:41;2.00;;;1.00;;
23506;SDS011;11930;53.076;18.250;2024-03-17T10:05:27;1.73;;;0.70;;
23506;SDS011;11930;53.076;18.250;2024-03-17T10:07:53;1.97;;;1.07;;
23506;SDS011;11930;53.076;18.250;2024-03-17T10:10:20;0.90;;;0.50;;
23506;SDS011;11930;53.076;18.250;2024-03-17T10:12:50;1.50;;;0.50;;
23506;SDS011;11930;53.076;18.250;2024-03-17T10:15:17;1.03;;;0.57;;
23506;SDS011;11930;53.076;18.250;2024-03-17T10:17:45;1.47;;;0.80;;
23506;SDS011;11930;53.076;18.250;2024-03-17T10:20:18;0.93;;;0.50;;
23506;SDS011;11930;53.076;18.250;2024-03-17T10:25:26;1.10;;;0.40;;
23506;SDS011;11930;53.076;18.250;2024-03-17T10:27:53;1.20;;;0.60;;
23506;SDS011;11930;53.076;18.250;2024-03-17T10:30:20;1.40;;;0.57;;
23506;SDS011;11930;53.076;18.250;2024-03-17T10:32:58;1.00;;;0.60;;
23506;SDS011;11930;53.076;18.250;2024-03-17T10:35:33;1.60;;;1.00;;
23506;SDS011;11930;53.076;18.250;2024-03-17T10:38:01;0.77;;;0.50;;
23506;SDS011;11930;53.076;18.250;2024-03-17T10:40:29;2.10;;;1.20;;
23506;SDS011;11930;53.076;18.250;2024-03-17T10:42:57;1.30;;;0.70;;
23506;SDS011;11930;53.076;18.250;2024-03-17T10:45:25;1.77;;;0.70;;
23506;SDS011;11930;53.076;18.250;2024-03-17T10:47:52;2.47;;;0.90;;
23506;SDS011;11930;53.076;18.250;2024-03-17T10:50:19;3.10;;;1.27;;
23506;SDS011;11930;53.076;18.250;2024-03-17T10:52:48;2.03;;;1.30;;
23506;SDS011;11930;53.076;18.250;2024-03-17T10:55:22;2.20;;;0.67;;
23506;SDS011;11930;53.076;18.250;2024-03-17T10:57:50;7.03;;;2.43;;
23506;SDS011;11930;53.076;18.250;2024-03-17T11:00:24;3.33;;;0.90;;
23506;SDS011;11930;53.076;18.250;2024-03-17T11:02:55;2.67;;;1.00;;
23506;SDS011;11930;53.076;18.250;2024-03-17T11:05:28;3.20;;;0.93;;
23506;SDS011;11930;53.076;18.250;2024-03-17T11:07:55;2.40;;;0.80;;
23506;SDS011;11930;53.076;18.250;2024-03-17T11:10:27;1.53;;;0.70;;
23506;SDS011;11930;53.076;18.250;2024-03-17T11:12:59;1.13;;;0.50;;
23506;SDS011;11930;53.076;18.250;2024-03-17T11:17:56;1.07;;;0.60;;
23506;SDS011;11930;53.076;18.250;2024-03-17T11:23:32;1.63;;;0.80;;
23506;SDS011;11930;53.076;18.250;2024-03-17T11:25:59;1.47;;;0.67;;
23506;SDS011;11930;53.076;18.250;2024-03-17T11:34:54;1.67;;;0.70;;
23506;SDS011;11930;53.076;18.250;2024-03-17T11:40:22;0.70;;;0.50;;
23506;SDS011;11930;53.076;18.250;2024-03-17T11:43:01;0.60;;;0.40;;
23506;SDS011;11930;53.076;18.250;2024-03-17T11:45:29;0.83;;;0.53;;
23506;SDS011;11930;53.076;18.250;2024-03-17T11:47:55;0.87;;;0.50;;
23506;SDS011;11930;53.076;18.250;2024-03-17T11:50:21;0.73;;;0.50;;
23506;SDS011;11930;53.076;18.250;2024-03-17T11:52:57;1.40;;;0.70;;
23506;SDS011;11930;53.076;18.250;2024-03-17T11:55:23;1.33;;;0.50;;
23506;SDS011;11930;53.076;18.250;2024-03-17T11:57:56;0.50;;;0.33;;
23506;SDS011;11930;53.076;18.250;2024-03-17T12:00:23;0.60;;;0.40;;
23506;SDS011;11930;53.076;18.250;2024-03-17T12:02:50;0.40;;;0.30;;
23506;SDS011;11930;53.076;18.250;2024-03-17T12:05:16;1.20;;;0.60;;
23506;SDS011;11930;53.076;18.250;2024-03-17T12:07:43;1.17;;;0.60;;
23506;SDS011;11930;53.076;18.250;2024-03-17T12:10:10;1.20;;;0.67;;
23506;SDS011;11930;53.076;18.250;2024-03-17T12:12:39;1.10;;;0.60;;
23506;SDS011;11930;53.076;18.250;2024-03-17T12:15:16;2.43;;;0.90;;
23506;SDS011;11930;53.076;18.250;2024-03-17T12:17:43;0.93;;;0.60;;
23506;SDS011;11930;53.076;18.250;2024-03-17T12:20:19;0.77;;;0.50;;
23506;SDS011;11930;53.076;18.250;2024-03-17T12:22:47;1.17;;;0.53;;
23506;SDS011;11930;53.076;18.250;2024-03-17T12:25:16;0.73;;;0.53;;
23506;SDS011;11930;53.076;18.250;2024-03-17T12:27:44;1.17;;;0.70;;
23506;SDS011;11930;53.076;18.250;2024-03-17T12:30:12;2.33;;;0.60;;
23506;SDS011;11930;53.076;18.250;2024-03-17T12:32:38;0.60;;;0.40;;
23506;SDS011;11930;53.076;18.250;2024-03-17T12:35:11;0.57;;;0.40;;
23506;SDS011;11930;53.076;18.250;2024-03-17T12:37:39;1.77;;;0.70;;
23506;SDS011;11930;53.076;18.250;2024-03-17T12:40:10;1.70;;;0.60;;
23506;SDS011;11930;53.076;18.250;2024-03-17T12:42:47;2.70;;;1.10;;
23506;SDS011;11930;53.076;18.250;2024-03-17T12:45:14;2.13;;;0.90;;
23506;SDS011;11930;53.076;18.250;2024-03-17T12:47:40;1.50;;;0.70;;
23506;SDS011;11930;53.076;18.250;2024-03-17T12:50:14;2.37;;;0.63;;
23506;SDS011;11930;53.076;18.250;2024-03-17T12:52:40;2.50;;;0.90;;
23506;SDS011;11930;53.076;18.250;2024-03-17T12:55:20;1.43;;;0.63;;
23506;SDS011;11930;53.076;18.250;2024-03-17T12:58:05;1.00;;;0.70;;
23506;SDS011;11930;53.076;18.250;2024-03-17T13:01:00;2.20;;;1.20;;
23506;SDS011;11930;53.076;18.250;2024-03-17T13:03:34;1.00;;;0.50;;
23506;SDS011;11930;53.076;18.250;2024-03-17T13:06:03;1.57;;;0.80;;
23506;SDS011;11930;53.076;18.250;2024-03-17T13:08:34;1.80;;;0.77;;
23506;SDS011;11930;53.076;18.250;2024-03-17T13:11:01;2.30;;;1.00;;
23506;SDS011;11930;53.076;18.250;2024-03-17T13:13:30;2.80;;;1.10;;
23506;SDS011;11930;53.076;18.250;2024-03-17T13:15:57;1.83;;;0.80;;
23506;SDS011;11930;53.076;18.250;2024-03-17T13:18:24;2.77;;;1.03;;
23506;SDS011;11930;53.076;18.250;2024-03-17T13:20:50;1.00;;;0.50;;
23506;SDS011;11930;53.076;18.250;2024-03-17T13:23:19;0.83;;;0.50;;
23506;SDS011;11930;53.076;18.250;2024-03-17T13:25:47;3.27;;;1.03;;
23506;SDS011;11930;53.076;18.250;2024-03-17T13:28:13;3.17;;;0.97;;
23506;SDS011;11930;53.076;18.250;2024-03-17T13:30:40;1.20;;;0.70;;
23506;SDS011;11930;53.076;18.250;2024-03-17T13:33:07;1.03;;;0.50;;
23506;SDS011;11930;53.076;18.250;2024-03-17T13:35:38;0.50;;;0.40;;
23506;SDS011;11930;53.076;18.250;2024-03-17T13:38:08;1.10;;;0.50;;
23506;SDS011;11930;53.076;18.250;2024-03-17T13:40:36;0.53;;;0.50;;
23506;SDS011;11930;53.076;18.250;2024-03-17T13:43:06;0.63;;;0.40;;
23506;SDS011;11930;53.076;18.250;2024-03-17T13:45:38;0.97;;;0.57;;
23506;SDS011;11930;53.076;18.250;2024-03-17T13:48:05;1.70;;;0.80;;
23506;SDS011;11930;53.076;18.250;2024-03-17T13:50:41;4.90;;;2.00;;
23506;SDS011;11930;53.076;18.250;2024-03-17T13:53:10;1.83;;;0.83;;
23506;SDS011;11930;53.076;18.250;2024-03-17T13:55:36;3.03;;;1.20;;
23506;SDS011;11930;53.076;18.250;2024-03-17T13:58:03;2.13;;;0.80;;
23506;SDS011;11930;53.076;18.250;2024-03-17T14:00:30;1.73;;;0.83;;
23506;SDS011;11930;53.076;18.250;2024-03-17T14:02:57;2.07;;;0.70;;
23506;SDS011;11930;53.076;18.250;2024-03-17T14:05:25;2.50;;;1.03;;
23506;SDS011;11930;53.076;18.250;2024-03-17T14:07:52;1.00;;;0.80;;
23506;SDS011;11930;53.076;18.250;2024-03-17T14:10:22;1.07;;;0.60;;
23506;SDS011;11930;53.076;18.250;2024-03-17T14:12:50;2.00;;;0.80;;
23506;SDS011;11930;53.076;18.250;2024-03-17T14:15:19;4.00;;;1.23;;
23506;SDS011;11930;53.076;18.250;2024-03-17T14:17:46;2.40;;;1.10;;
23506;SDS011;11930;53.076;18.250;2024-03-17T14:20:13;1.63;;;0.70;;
23506;SDS011;11930;53.076;18.250;2024-03-17T14:22:41;2.07;;;0.80;;
23506;SDS011;11930;53.076;18.250;2024-03-17T14:25:09;1.53;;;0.77;;
23506;SDS011;11930;53.076;18.250;2024-03-17T14:27:42;1.20;;;0.80;;
23506;SDS011;11930;53.076;18.250;2024-03-17T14:30:10;1.27;;;0.70;;
23506;SDS011;11930;53.076;18.250;2024-03-17T14:32:39;1.57;;;0.90;;
23506;SDS011;11930;53.076;18.250;2024-03-17T14:35:06;3.33;;;1.07;;
23506;SDS011;11930;53.076;18.250;2024-03-17T14:37:36;1.43;;;0.70;;
23506;SDS011;11930;53.076;18.250;2024-03-17T14:40:03;1.30;;;0.60;;
23506;SDS011;11930;53.076;18.250;2024-03-17T14:42:37;1.27;;;0.60;;
23506;SDS011;11930;53.076;18.250;2024-03-17T14:45:03;2.80;;;1.00;;
23506;SDS011;11930;53.076;18.250;2024-03-17T14:47:30;5.60;;;1.30;;
23506;SDS011;11930;53.076;18.250;2024-03-17T14:49:56;1.20;;;0.60;;
23506;SDS011;11930;53.076;18.250;2024-03-17T14:52:22;2.70;;;0.90;;
23506;SDS011;11930;53.076;18.250;2024-03-17T14:54:50;2.23;;;0.60;;
23506;SDS011;11930;53.076;18.250;2024-03-17T14:57:18;1.20;;;0.60;;
23506;SDS011;11930;53.076;18.250;2024-03-17T14:59:46;1.87;;;0.70;;
23506;SDS011;11930;53.076;18.250;2024-03-17T15:02:12;0.57;;;0.40;;
23506;SDS011;11930;53.076;18.250;2024-03-17T15:04:38;0.57;;;0.40;;